createdAt,value
2019-01-29T00:01:27.948Z,96669.01
2019-01-29T00:03:57.434Z,96671.58
2019-01-29T00:06:26.974Z,96670.08
2019-01-29T00:08:56.717Z,96680.94
2019-01-29T00:11:26.429Z,96685.77
2019-01-29T00:13:56.282Z,96684.39
2019-01-29T00:16:25.761Z,96687.91
2019-01-29T00:18:55.254Z,96685.23
2019-01-29T00:21:24.709Z,96691.89
2019-01-29T00:23:54.202Z,96703.05
2019-01-29T00:26:23.682Z,96705.66
2019-01-29T00:28:53.256Z,96706.95
2019-01-29T00:31:22.713Z,96704.06
2019-01-29T00:33:52.318Z,96709.00
2019-01-29T00:36:21.892Z,96711.19
2019-01-29T00:38:51.439Z,96713.30
2019-01-29T00:41:20.942Z,96717.78
2019-01-29T00:43:50.468Z,96710.61
2019-01-29T00:46:19.954Z,96724.17
2019-01-29T00:48:49.421Z,96723.45
2019-01-29T00:51:18.922Z,96725.57
2019-01-29T00:53:48.467Z,96735.70
2019-01-29T00:56:17.927Z,96737.81
2019-01-29T00:58:47.418Z,96738.89
2019-01-29T01:01:16.963Z,96752.95
2019-01-29T01:03:46.471Z,96748.69
2019-01-29T01:06:15.990Z,96758.55
2019-01-29T01:08:45.871Z,96755.09
2019-01-29T01:11:15.377Z,96759.33
2019-01-29T01:13:44.874Z,96755.33
2019-01-29T01:16:14.378Z,96757.50
2019-01-29T01:18:43.848Z,96768.42
2019-01-29T01:21:13.329Z,96768.69
2019-01-29T01:23:42.814Z,96768.42
2019-01-29T01:26:12.453Z,96767.63
2019-01-29T01:28:41.967Z,96770.78
2019-01-29T01:31:11.538Z,96767.38
2019-01-29T01:33:41.034Z,96774.30
2019-01-29T01:36:10.542Z,96776.12
2019-01-29T01:38:40.059Z,96778.25
2019-01-29T01:41:09.537Z,96783.30
2019-01-29T01:43:39.054Z,96785.68
2019-01-29T01:46:08.562Z,96792.13
2019-01-29T01:48:38.032Z,96789.43
2019-01-29T01:51:07.549Z,96787.50
2019-01-29T01:53:37.008Z,96799.20
2019-01-29T01:56:06.643Z,96791.83
2019-01-29T01:58:36.139Z,96794.49
2019-01-29T02:01:06.088Z,96802.96
2019-01-29T02:03:35.642Z,96803.76
2019-01-29T02:06:05.522Z,96812.55
2019-01-29T02:08:35.039Z,96809.07
2019-01-29T02:11:04.521Z,96815.98
2019-01-29T02:13:34.172Z,96814.93
2019-01-29T02:16:03.661Z,96816.83
2019-01-29T02:18:33.154Z,96821.08
2019-01-29T02:21:02.805Z,96823.71
2019-01-29T02:23:32.323Z,96830.09
2019-01-29T02:26:01.848Z,96835.41
2019-01-29T02:28:31.342Z,96838.87
2019-01-29T02:31:00.950Z,96840.45
2019-01-29T02:33:30.434Z,96840.69
2019-01-29T02:36:00.128Z,96846.55
2019-01-29T02:38:29.703Z,96842.56
2019-01-29T02:40:59.270Z,96846.83
2019-01-29T02:43:28.828Z,96857.23
2019-01-29T02:45:58.329Z,96849.53
2019-01-29T02:48:27.798Z,96848.72
2019-01-29T02:50:57.292Z,96857.50
2019-01-29T02:53:26.911Z,96858.55
2019-01-29T02:55:56.376Z,96866.27
2019-01-29T02:58:25.841Z,96867.84
2019-01-29T03:00:55.323Z,96863.05
2019-01-29T03:03:24.796Z,96867.03
2019-01-29T03:05:54.410Z,96874.95
2019-01-29T03:08:23.873Z,96870.48
2019-01-29T03:10:53.493Z,96875.77
2019-01-29T03:13:22.946Z,96887.52
2019-01-29T03:15:52.401Z,96886.19
2019-01-29T03:18:21.939Z,96898.12
2019-01-29T03:20:51.404Z,96896.51
2019-01-29T03:23:27.220Z,96899.67
2019-01-29T03:25:52.295Z,96905.83
2019-01-29T03:28:21.924Z,96911.42
2019-01-29T03:30:51.511Z,96910.11
2019-01-29T03:33:21.021Z,96918.34
2019-01-29T03:35:50.518Z,96921.00
2019-01-29T03:38:20.231Z,96923.66
2019-01-29T03:40:49.730Z,96924.94
2019-01-29T03:43:19.250Z,96928.93
2019-01-29T03:45:48.717Z,96928.70
2019-01-29T03:48:19.003Z,96935.32
2019-01-29T03:50:48.941Z,96933.20
2019-01-29T03:53:18.461Z,96940.39
2019-01-29T03:55:48.251Z,96934.02
2019-01-29T03:58:17.766Z,96942.00
2019-01-29T04:00:47.350Z,96943.05
2019-01-29T04:03:16.867Z,96948.64
2019-01-29T04:05:46.329Z,96957.39
2019-01-29T04:08:16.379Z,96945.72
2019-01-29T04:10:45.839Z,96952.84
2019-01-29T04:13:15.382Z,96952.35
2019-01-29T04:15:45.753Z,96955.55
2019-01-29T04:18:15.332Z,96960.86
2019-01-29T04:20:44.976Z,96960.87
2019-01-29T04:23:14.435Z,96959.51
2019-01-29T04:25:43.913Z,96958.72
2019-01-29T04:28:13.373Z,96960.08
2019-01-29T04:30:42.936Z,96964.55
2019-01-29T04:33:12.462Z,96962.70
2019-01-29T04:35:42.103Z,96964.30
2019-01-29T04:38:11.709Z,96961.67
2019-01-29T04:40:41.179Z,96964.84
2019-01-29T04:43:12.957Z,96970.45
2019-01-29T04:45:41.878Z,96964.55
2019-01-29T04:48:11.591Z,96971.50
2019-01-29T04:50:41.152Z,96969.86
2019-01-29T04:53:10.612Z,96965.63
2019-01-29T04:55:40.122Z,96966.70
2019-01-29T04:58:09.680Z,96973.11
2019-01-29T05:00:39.212Z,96975.76
2019-01-29T05:03:08.707Z,96974.44
2019-01-29T05:05:38.418Z,96977.61
2019-01-29T05:08:07.883Z,96982.11
2019-01-29T05:10:37.465Z,96982.15
2019-01-29T05:13:06.984Z,96985.31
2019-01-29T05:15:36.476Z,96986.10
2019-01-29T05:18:05.993Z,96991.19
2019-01-29T05:20:35.468Z,96981.88
2019-01-29T05:23:05.247Z,96985.58
2019-01-29T05:25:34.824Z,96989.56
2019-01-29T05:28:04.398Z,96992.48
2019-01-29T05:30:33.953Z,96993.83
2019-01-29T05:33:03.952Z,96994.89
2019-01-29T05:35:33.496Z,97000.73
2019-01-29T05:38:04.183Z,97006.87
2019-01-29T05:40:33.872Z,97007.41
2019-01-29T05:43:03.332Z,97011.91
2019-01-29T05:45:32.821Z,97011.64
2019-01-29T05:48:02.422Z,97012.70
2019-01-29T05:50:31.908Z,97019.11
2019-01-29T05:53:01.388Z,97029.75
2019-01-29T05:55:30.959Z,97027.86
2019-01-29T05:58:00.455Z,97030.24
2019-01-29T06:00:34.192Z,97032.94
2019-01-29T06:03:03.693Z,97036.95
2019-01-29T06:05:33.254Z,97034.02
2019-01-29T06:08:05.087Z,97042.80
2019-01-29T06:10:34.182Z,97044.92
2019-01-29T06:13:03.818Z,97045.98
2019-01-29T06:15:33.511Z,97045.44
2019-01-29T06:18:03.035Z,97052.63
2019-01-29T06:20:32.702Z,97053.69
2019-01-29T06:23:02.245Z,97051.03
2019-01-29T06:25:31.845Z,97059.01
2019-01-29T06:28:01.307Z,97059.02
2019-01-29T06:30:30.827Z,97056.08
2019-01-29T06:33:00.349Z,97068.05
2019-01-29T06:35:29.901Z,97064.34
2019-01-29T06:37:59.409Z,97068.58
2019-01-29T06:40:29.259Z,97066.73
2019-01-29T06:42:59.137Z,97077.34
2019-01-29T06:45:28.915Z,97081.89
2019-01-29T06:47:58.460Z,97080.58
2019-01-29T06:50:28.123Z,97082.16
2019-01-29T06:52:58.043Z,97083.23
2019-01-29T06:55:27.520Z,97084.28
2019-01-29T06:57:57.015Z,97091.47
2019-01-29T07:00:28.470Z,97088.80
2019-01-29T07:02:59.157Z,97088.30
2019-01-29T07:05:28.633Z,97099.98
2019-01-29T07:07:58.402Z,97092.25
2019-01-29T07:10:28.496Z,97102.63
2019-01-29T07:12:58.520Z,97105.00
2019-01-29T07:15:46.484Z,97108.22
2019-01-29T07:18:47.567Z,97114.35
2019-01-29T07:21:17.035Z,97109.55
2019-01-29T07:23:46.732Z,97112.48
2019-01-29T07:26:16.230Z,97114.06
2019-01-29T07:28:45.707Z,97115.13
2019-01-29T07:31:15.351Z,97116.21
2019-01-29T07:33:44.928Z,97117.78
2019-01-29T07:36:14.508Z,97125.80
2019-01-29T07:38:43.975Z,97130.30
2019-01-29T07:41:13.449Z,97124.73
2019-01-29T07:43:42.959Z,97124.72
2019-01-29T07:46:12.493Z,97135.81
2019-01-29T07:48:41.971Z,97134.84
2019-01-29T07:51:11.446Z,97135.34
2019-01-29T07:53:41.103Z,97135.91
2019-01-29T07:56:10.607Z,97132.72
2019-01-29T07:58:40.305Z,97139.60
2019-01-29T08:01:09.772Z,97131.89
2019-01-29T08:03:39.246Z,97139.83
2019-01-29T08:06:09.089Z,97136.36
2019-01-29T08:08:38.638Z,97137.50
2019-01-29T08:11:08.267Z,97135.63
2019-01-29T08:13:37.734Z,97132.65
2019-01-29T08:16:07.486Z,97143.80
2019-01-29T08:18:36.969Z,97140.58
2019-01-29T08:21:06.446Z,97142.17
2019-01-29T08:23:35.980Z,97138.52
2019-01-29T08:26:05.451Z,97136.70
2019-01-29T08:28:35.006Z,97144.38
2019-01-29T08:31:04.690Z,97142.97
2019-01-29T08:33:34.212Z,97145.14
2019-01-29T08:36:04.170Z,97148.53
2019-01-29T08:38:33.763Z,97147.28
2019-01-29T08:41:04.465Z,97152.38
2019-01-29T08:43:34.105Z,97151.34
2019-01-29T08:46:04.015Z,97155.58
2019-01-29T08:48:33.485Z,97163.05
2019-01-29T08:51:03.792Z,97155.59
2019-01-29T08:53:33.393Z,97153.47
2019-01-29T08:56:02.881Z,97159.88
2019-01-29T08:58:32.464Z,97156.95
2019-01-29T09:01:01.973Z,97162.28
2019-01-29T09:03:31.578Z,97159.08
2019-01-29T09:06:01.225Z,97155.61
2019-01-29T09:08:30.925Z,97156.93
2019-01-29T09:11:00.455Z,97151.88
2019-01-29T09:13:29.912Z,97161.47
2019-01-29T09:15:59.456Z,97162.25
2019-01-29T09:18:28.873Z,97156.67
2019-01-29T09:20:58.362Z,97157.48
2019-01-29T09:23:30.681Z,97159.85
2019-01-29T09:26:00.157Z,97164.39
2019-01-29T09:28:29.700Z,97155.58
2019-01-29T09:30:59.168Z,97149.98
2019-01-29T09:33:28.689Z,97152.09
2019-01-29T09:35:58.171Z,97159.06
2019-01-29T09:38:28.810Z,97163.03
2019-01-29T09:40:58.241Z,97156.95
2019-01-29T09:43:28.174Z,97161.74
2019-01-29T09:45:57.681Z,97157.20
2019-01-29T09:48:27.224Z,97165.98
2019-01-29T09:50:56.697Z,97155.36
2019-01-29T09:53:26.151Z,97160.67
2019-01-29T09:55:55.656Z,97160.14
2019-01-29T09:58:25.128Z,97162.80
2019-01-29T10:00:54.601Z,97161.48
2019-01-29T10:03:24.068Z,97164.64
2019-01-29T10:05:53.621Z,97162.52
2019-01-29T10:08:23.042Z,97160.66
2019-01-29T10:10:52.516Z,97158.51
2019-01-29T10:13:22.026Z,97154.96
2019-01-29T10:15:51.839Z,97152.11
2019-01-29T10:18:21.421Z,97146.52
2019-01-29T10:20:50.897Z,97147.81
2019-01-29T10:23:20.567Z,97141.44
2019-01-29T10:25:50.019Z,97134.77
2019-01-29T10:28:19.537Z,97133.10
2019-01-29T10:30:48.935Z,97129.03
2019-01-29T10:33:18.505Z,97123.59
2019-01-29T10:35:47.926Z,97122.80
2019-01-29T10:38:17.291Z,97111.13
2019-01-29T10:40:46.885Z,97119.53
2019-01-29T10:43:16.261Z,97120.44
2019-01-29T10:45:45.826Z,97110.27
2019-01-29T10:48:15.228Z,97110.70
2019-01-29T10:50:44.607Z,97105.59
2019-01-29T10:53:14.164Z,97109.27
2019-01-29T10:55:47.488Z,97095.67
2019-01-29T10:58:14.918Z,97095.91
2019-01-29T11:00:44.414Z,97098.63
2019-01-29T11:03:13.989Z,97093.83
2019-01-29T11:05:43.581Z,97090.93
2019-01-29T11:08:12.945Z,97084.92
2019-01-29T11:10:42.389Z,97078.36
2019-01-29T11:13:11.764Z,97076.19
2019-01-29T11:15:43.332Z,97076.09
2019-01-29T11:18:15.112Z,97066.58
2019-01-29T11:20:44.670Z,97060.05
2019-01-29T11:23:14.105Z,97058.63
2019-01-29T11:25:43.884Z,97049.55
2019-01-29T11:28:13.303Z,97044.81
2019-01-29T11:30:43.107Z,97041.52
2019-01-29T11:33:12.508Z,97046.37
2019-01-29T11:35:42.013Z,97042.47
2019-01-29T11:38:11.418Z,97042.39
2019-01-29T11:40:40.993Z,97037.42
2019-01-29T11:43:10.437Z,97041.86
2019-01-29T11:45:51.967Z,97035.70
2019-01-29T11:48:21.408Z,97033.56
2019-01-29T11:50:50.878Z,97034.63
2019-01-29T11:53:20.384Z,97031.86
2019-01-29T11:55:50.021Z,97028.59
2019-01-29T11:58:19.410Z,97020.52
2019-01-29T12:01:09.505Z,97020.56
2019-01-29T12:03:38.883Z,97023.69
2019-01-29T12:06:08.419Z,97023.72
2019-01-29T12:08:38.457Z,97024.13
2019-01-29T12:11:08.010Z,97020.17
2019-01-29T12:13:37.391Z,97014.97
2019-01-29T12:16:06.821Z,97006.23
2019-01-29T12:18:36.301Z,97004.53
2019-01-29T12:21:06.116Z,97013.84
2019-01-29T12:23:35.519Z,97003.97
2019-01-29T12:26:12.934Z,96998.06
2019-01-29T12:28:36.590Z,96997.83
2019-01-29T12:31:06.253Z,96990.34
2019-01-29T12:33:35.729Z,96992.84
2019-01-29T12:36:05.276Z,96989.95
2019-01-29T12:38:34.832Z,96985.85
2019-01-29T12:41:04.223Z,96976.83
2019-01-29T12:43:33.794Z,96985.28
2019-01-29T12:46:03.562Z,96984.78
2019-01-29T12:48:32.941Z,96978.48
2019-01-29T12:51:04.077Z,96973.23
2019-01-29T12:53:41.736Z,96970.92
2019-01-29T12:56:11.147Z,96965.47
2019-01-29T12:58:40.610Z,96966.69
2019-01-29T13:01:10.084Z,96960.77
2019-01-29T13:03:39.734Z,96962.58
2019-01-29T13:06:09.307Z,96954.42
2019-01-29T13:08:38.754Z,96953.42
2019-01-29T13:11:08.225Z,96951.51
2019-01-29T13:13:37.616Z,96948.12
2019-01-29T13:16:07.026Z,96952.08
2019-01-29T13:18:36.422Z,96949.56
2019-01-29T13:21:05.869Z,96944.19
2019-01-29T13:23:35.294Z,96941.33
2019-01-29T13:26:04.687Z,96938.22
2019-01-29T13:28:34.104Z,96934.84
2019-01-29T13:31:03.558Z,96931.91
2019-01-29T13:33:33.033Z,96930.59
2019-01-29T13:36:03.290Z,96919.74
2019-01-29T13:38:32.836Z,96918.20
2019-01-29T13:41:02.500Z,96921.86
2019-01-29T13:43:32.004Z,96915.59
2019-01-29T13:46:01.526Z,96911.58
2019-01-29T13:48:30.963Z,96919.42
2019-01-29T13:51:02.599Z,96910.64
2019-01-29T13:53:32.791Z,96907.30
2019-01-29T13:56:02.244Z,96908.33
2019-01-29T13:58:31.612Z,96902.45
2019-01-29T14:01:01.025Z,96906.98
2019-01-29T14:03:30.388Z,96907.52
2019-01-29T14:05:59.927Z,96906.54
2019-01-29T14:08:29.424Z,96898.53
2019-01-29T14:10:58.785Z,96902.05
2019-01-29T14:13:28.268Z,96892.94
2019-01-29T14:15:59.446Z,96889.55
2019-01-29T14:18:31.174Z,96880.80
2019-01-29T14:21:01.472Z,96886.00
2019-01-29T14:23:31.082Z,96879.42
2019-01-29T14:26:00.481Z,96887.54
2019-01-29T14:28:30.078Z,96886.59
2019-01-29T14:30:59.572Z,96885.91
2019-01-29T14:33:29.069Z,96880.47
2019-01-29T14:35:58.610Z,96887.30
2019-01-29T14:39:05.353Z,96890.61
2019-01-29T14:41:34.921Z,96886.06
2019-01-29T14:44:06.457Z,96880.28
2019-01-29T14:46:35.903Z,96886.18
2019-01-29T14:49:05.831Z,96884.97
2019-01-29T14:51:35.237Z,96879.80
2019-01-29T14:54:05.433Z,96875.39
2019-01-29T14:56:34.939Z,96870.64
2019-01-29T14:59:04.447Z,96866.73
2019-01-29T15:01:34.012Z,96866.78
2019-01-29T15:04:03.535Z,96855.69
2019-01-29T15:06:33.115Z,96856.44
2019-01-29T15:09:02.672Z,96854.48
2019-01-29T15:11:32.105Z,96851.21
2019-01-29T15:14:01.533Z,96850.13
2019-01-29T15:17:08.096Z,96849.48
2019-01-29T15:19:37.479Z,96845.02
2019-01-29T15:22:07.040Z,96847.73
2019-01-29T15:24:36.644Z,96844.39
2019-01-29T15:27:06.450Z,96848.42
2019-01-29T15:29:35.852Z,96842.64
2019-01-29T15:32:05.757Z,96848.04
2019-01-29T15:34:35.287Z,96846.13
2019-01-29T15:37:05.006Z,96843.59
2019-01-29T15:39:34.462Z,96846.78
2019-01-29T15:42:03.893Z,96845.39
2019-01-29T15:44:33.394Z,96848.12
2019-01-29T15:47:02.877Z,96836.84
2019-01-29T15:49:32.306Z,96833.48
2019-01-29T15:52:01.697Z,96833.59
2019-01-29T15:54:31.128Z,96834.70
2019-01-29T15:57:00.620Z,96825.48
2019-01-29T15:59:30.066Z,96823.01
2019-01-29T16:01:59.441Z,96830.37
2019-01-29T16:04:28.827Z,96823.63
2019-01-29T16:06:58.335Z,96822.70
2019-01-29T16:09:27.734Z,96826.84
2019-01-29T16:11:57.206Z,96826.28
2019-01-29T16:14:26.658Z,96816.94
2019-01-29T16:16:56.237Z,96819.33
2019-01-29T16:19:25.696Z,96818.78
2019-01-29T16:21:55.135Z,96814.73
2019-01-29T16:24:24.570Z,96814.53
2019-01-29T16:26:54.229Z,96811.95
2019-01-29T16:29:23.682Z,96807.07
2019-01-29T16:31:53.094Z,96808.89
2019-01-29T16:34:22.611Z,96810.33
2019-01-29T16:36:52.033Z,96794.60
2019-01-29T16:39:21.454Z,96804.32
2019-01-29T16:41:50.831Z,96804.95
2019-01-29T16:44:20.285Z,96802.16
2019-01-29T16:46:49.664Z,96796.83
2019-01-29T16:49:19.315Z,96791.64
2019-01-29T16:51:48.810Z,96791.59
2019-01-29T16:54:18.210Z,96795.02
2019-01-29T16:56:47.961Z,96792.27
2019-01-29T16:59:17.485Z,96796.33
2019-01-29T17:01:46.914Z,96788.24
2019-01-29T17:04:16.374Z,96790.28
2019-01-29T17:06:45.780Z,96789.53
2019-01-29T17:09:15.561Z,96783.06
2019-01-29T17:11:45.112Z,96784.95
2019-01-29T17:14:14.486Z,96774.11
2019-01-29T17:16:43.913Z,96774.78
2019-01-29T17:19:13.390Z,96768.48
2019-01-29T17:21:42.839Z,96765.81
2019-01-29T17:24:12.210Z,96761.23
2019-01-29T17:26:41.617Z,96762.77
2019-01-29T17:29:11.124Z,96761.39
2019-01-29T17:31:40.502Z,96757.86
2019-01-29T17:34:10.135Z,96748.41
2019-01-29T17:36:39.548Z,96747.19
2019-01-29T17:39:09.819Z,96744.94
2019-01-29T17:41:39.303Z,96740.06
2019-01-29T17:44:08.850Z,96743.99
2019-01-29T17:46:38.247Z,96740.69
2019-01-29T17:49:08.414Z,96746.13
2019-01-29T17:51:38.182Z,96742.20
2019-01-29T17:54:07.870Z,96732.84
2019-01-29T17:56:37.292Z,96731.25
2019-01-29T17:59:06.969Z,96730.89
2019-01-29T18:01:36.367Z,96732.73
2019-01-29T18:04:06.322Z,96726.42
2019-01-29T18:06:35.928Z,96719.14
2019-01-29T18:09:09.673Z,96712.38
2019-01-29T18:11:39.299Z,96705.31
2019-01-29T18:14:08.884Z,96703.70
2019-01-29T18:16:38.449Z,96697.98
2019-01-29T18:19:07.974Z,96701.02
2019-01-29T18:21:37.351Z,96691.36
2019-01-29T18:24:07.078Z,96681.09
2019-01-29T18:26:36.586Z,96684.33
2019-01-29T18:29:06.262Z,96683.63
2019-01-29T18:31:35.790Z,96679.47
2019-01-29T18:34:05.509Z,96670.77
2019-01-29T18:36:35.304Z,96669.43
2019-01-29T18:39:07.112Z,96662.51
2019-01-29T18:41:36.608Z,96661.52
2019-01-29T18:44:06.075Z,96656.20
2019-01-29T18:46:35.702Z,96645.09
2019-01-29T18:49:05.521Z,96643.76
2019-01-29T18:51:34.988Z,96646.72
2019-01-29T18:54:04.814Z,96642.41
2019-01-29T18:56:34.287Z,96634.02
2019-01-29T18:59:04.070Z,96630.84
2019-01-29T19:01:33.743Z,96619.20
2019-01-29T19:04:03.574Z,96617.33
2019-01-29T19:06:33.035Z,96620.78
2019-01-29T19:09:02.789Z,96618.40
2019-01-29T19:11:32.291Z,96618.66
2019-01-29T19:14:01.749Z,96622.09
2019-01-29T19:16:31.232Z,96621.92
2019-01-29T19:19:00.805Z,96620.85
2019-01-29T19:21:30.303Z,96609.92
2019-01-29T19:24:01.417Z,96610.22
2019-01-29T19:26:31.186Z,96607.58
2019-01-29T19:29:00.684Z,96611.30
2019-01-29T19:31:30.147Z,96599.42
2019-01-29T19:33:59.688Z,96598.59
2019-01-29T19:36:29.163Z,96598.16
2019-01-29T19:38:59.009Z,96594.13
2019-01-29T19:41:28.459Z,96596.51
2019-01-29T19:43:57.944Z,96592.48
2019-01-29T19:46:27.501Z,96589.80
2019-01-29T19:48:57.473Z,96588.47
2019-01-29T19:51:26.945Z,96581.07
2019-01-29T19:53:56.466Z,96587.41
2019-01-29T19:56:26.068Z,96581.07
2019-01-29T19:58:55.498Z,96577.88
2019-01-29T20:01:24.974Z,96581.39
2019-01-29T20:03:54.537Z,96575.00
2019-01-29T20:06:24.062Z,96571.78
2019-01-29T20:08:53.518Z,96565.63
2019-01-29T20:11:22.976Z,96559.33
2019-01-29T20:13:52.471Z,96556.37
2019-01-29T20:16:22.280Z,96549.02
2019-01-29T20:18:51.762Z,96547.64
2019-01-29T20:21:21.228Z,96543.68
2019-01-29T20:23:50.730Z,96543.41
2019-01-29T20:26:20.187Z,96539.97
2019-01-29T20:28:49.978Z,96533.80
2019-01-29T20:31:19.593Z,96534.95
2019-01-29T20:33:49.066Z,96523.52
2019-01-29T20:36:18.600Z,96526.69
2019-01-29T20:38:48.052Z,96525.63
2019-01-29T20:41:17.564Z,96518.76
2019-01-29T20:43:47.209Z,96515.54
2019-01-29T20:46:16.797Z,96506.48
2019-01-29T20:48:46.313Z,96508.88
2019-01-29T20:51:15.783Z,96502.49
2019-01-29T20:53:45.351Z,96501.80
2019-01-29T20:56:14.888Z,96503.65
2019-01-29T20:58:52.527Z,96493.33
2019-01-29T21:01:15.594Z,96493.06
2019-01-29T21:03:45.146Z,96490.38
2019-01-29T21:06:14.625Z,96488.34
2019-01-29T21:08:44.250Z,96481.95
2019-01-29T21:11:13.704Z,96480.57
2019-01-29T21:13:43.148Z,96483.01
2019-01-29T21:16:12.827Z,96477.96
2019-01-29T21:18:42.282Z,96475.33
2019-01-29T21:21:12.016Z,96470.33
2019-01-29T21:23:41.491Z,96470.56
2019-01-29T21:26:11.238Z,96463.15
2019-01-29T21:28:40.704Z,96468.23
2019-01-29T21:31:10.209Z,96463.98
2019-01-29T21:33:39.857Z,96467.42
2019-01-29T21:36:09.422Z,96461.33
2019-01-29T21:38:38.919Z,96459.72
2019-01-29T21:41:08.394Z,96457.61
2019-01-29T21:43:37.975Z,96456.25
2019-01-29T21:46:07.449Z,96444.00
2019-01-29T21:48:37.300Z,96441.63
2019-01-29T21:51:07.385Z,96441.64
2019-01-29T21:53:36.857Z,96437.07
2019-01-29T21:56:06.514Z,96433.71
2019-01-29T21:58:36.108Z,96422.57
2019-01-29T22:01:05.987Z,96420.42
2019-01-29T22:03:35.489Z,96414.84
2019-01-29T22:06:05.915Z,96411.72
2019-01-29T22:08:35.391Z,96412.02
2019-01-29T22:11:04.994Z,96411.14
2019-01-29T22:13:34.520Z,96407.70
2019-01-29T22:16:03.982Z,96399.96
2019-01-29T22:18:33.537Z,96403.22
2019-01-29T22:21:03.243Z,96397.86
2019-01-29T22:23:32.748Z,96397.05
2019-01-29T22:26:02.234Z,96392.56
2019-01-29T22:28:31.746Z,96384.28
2019-01-29T22:31:01.232Z,96391.67
2019-01-29T22:33:30.769Z,96379.56
2019-01-29T22:36:00.234Z,96380.97
2019-01-29T22:38:29.733Z,96372.73
2019-01-29T22:40:59.279Z,96367.19
2019-01-29T22:43:28.788Z,96362.83
2019-01-29T22:45:58.309Z,96363.02
2019-01-29T22:48:27.800Z,96357.22
2019-01-29T22:50:57.452Z,96358.77
2019-01-29T22:53:26.965Z,96353.17
2019-01-29T22:55:56.726Z,96347.97
2019-01-29T22:58:26.218Z,96347.96
2019-01-29T23:01:22.973Z,96339.76
2019-01-29T23:04:04.111Z,96340.86
2019-01-29T23:06:53.036Z,96339.73
2019-01-29T23:09:22.530Z,96332.55
2019-01-29T23:11:52.088Z,96328.32
2019-01-29T23:14:21.795Z,96318.27
2019-01-29T23:16:51.250Z,96314.00
2019-01-29T23:19:20.742Z,96314.45
2019-01-29T23:21:50.311Z,96310.27
2019-01-29T23:24:19.855Z,96303.11
2019-01-29T23:26:49.330Z,96308.70
2019-01-29T23:29:18.857Z,96296.30
2019-01-29T23:31:48.477Z,96292.64
2019-01-29T23:34:17.953Z,96292.64
2019-01-29T23:36:47.458Z,96290.73
2019-01-29T23:39:16.964Z,96285.17
2019-01-29T23:41:46.468Z,96284.38
2019-01-29T23:44:15.997Z,96281.73
2019-01-29T23:46:45.489Z,96276.50
2019-01-29T23:49:14.993Z,96266.67
2019-01-29T23:51:44.513Z,96264.78
2019-01-29T23:54:14.206Z,96260.84
2019-01-29T23:56:43.675Z,96252.85
2019-01-29T23:59:13.148Z,96249.05
